Teigen, MT

6:39 AM MDT on July 10, 2014 (GMT -0600)
Billings Logan International (KBIL) Elev 3570 ft | 45.81 °N, 108.54 °W | Change Station
Active Advisory: Lake Wind Advisory

Current weather conditions updated 46 minutes ago

Mostly Cloudy
Mostly Cloudy
70 °F
Feels Like 70 °F
N
6
Wind Variable Wind from WSW

Today is forecast to be nearly the same temperature as yesterday.

Today
High -- | Low -- °F
--% Chance of Precip.
Yesterday
High -- | Low -- °F
Precip. -- in
5:29 AM 9:09 PM
Waxing Gibbous, 94% visible
Pressure 29.76 in
Visibility 10.0 miles
Clouds Few 5500 ft
Scattered Clouds 8000 ft
Mostly Cloudy 10000 ft
Mostly Cloudy 18000 ft
Dew Point 55 °F
Humidity 59%
Rainfall 0.01 in
Snow Depth Not available.
UV 0 out of 12
Pollen 5.30 out of 12
Air Quality Not available.
Flu Activity Sporadic
METAR KBIL 101153Z 25005KT 10SM FEW055 SCT080CB BKN100 BKN180 21/13 A2988 RMK AO2 RAB1055E53 SLP077 VIRGA OHD VCSH E-S-W CB OHD MOV E P0001 60001 70001 T02110128 10267 20200 52008

More Conditions Fewer Conditions

Pressure 29.76 in
Visibility 10.0 miles
Clouds Few 5500 ft
Scattered Clouds 8000 ft
Mostly Cloudy 10000 ft
Mostly Cloudy 18000 ft
Dew Point 55 °F
Humidity 59%
Rainfall 0.01 in
Snow Depth Not available.
UV 0 out of 12
Pollen 5.30 out of 12
Air Quality Not available.
Flu Activity Sporadic
METAR KBIL 101153Z 25005KT 10SM FEW055 SCT080CB BKN100 BKN180 21/13 A2988 RMK AO2 RAB1055E53 SLP077 VIRGA OHD VCSH E-S-W CB OHD MOV E P0001 60001 70001 T02110128 10267 20200 52008

More Conditions Fewer Conditions

10-Day Weather Forecast

Almanac

Astronomy

Jul. 10, 2014 Rise Set
Actual Time 5:29 AM MDT 9:09 PM MDT
Civil Twilight 4:51 AM MDT 9:47 PM MDT
Nautical Twilight 3:59 AM MDT 10:39 PM MDT
Astronomical Twilight 2:46 AM MDT 11:50 PM MDT
Moon 7:21 PM MDT 3:48 AM MDT
Length of Visible Light 16h 56m
Length of Day
15h 39m
Tomorrow will be 1m 31s shorter.
Waxing Gibbous, 94% of the Moon is Illuminated
Today
Waxing Gibbous
Jul 12
Full
Jul 18
Last Quarter
Jul 26
New
Aug 3
First Quarter

Today's Extremes

State Highs State Lows

Community

WunderPhotos

Upload Photos

1,732,115 photos uploaded!

Nearby

Snow Depth

Station Depth Elevation
Crystal Lake 0 in 6050 ft
Spur Park 0 in 8100 ft
Deadman Creek 0 in 6450 ft
Onion Park 0 in 7410 ft
Stringer Creek 0 in 6550 ft

Earthquake Activity

City Distance Mag. Time & Date
No recent earthquake activity has been reported nearby.
Minimum magnitude displayed is 2.5.

Coastal Water Temperatures

Place Temperature
No Stations Reporting

Nearby Weather Stations

Station Location Temp. Dew Point Humidity Wind Precip. Elev Updated Type
MesoWest WINNETT HANDAR , Winnett, MT 65 °F 54 °F 68% North  at  0 mph 0.00 in / hr 2969 ft 4:50 AM MDT MADIS

Show More Stations Show Fewer Stations